Defoe, Kentucky
Current Conditions -  °F | °C
As of 6:53 PM on Saturday 25 Oct 2014 (Local Time) from KFFT Reporting Station
Clear Clear  
Wind Chill: 20°   Ceiling: Unl
Heat Index: 20°   Visibility: 10mi
Dew Point: 13°   Wind: 5mph
Humidity: 65%   Direction: 260°W
Pressure: 29.96"   Gusts: NA
Location:  38.369°N, 85.0622°W
Report Text: KFFT 252253Z AUTO 26004KT 10SM CLR 20/13 A2996 RMK AO2 SLP144 T02000133
Loading
Personal Weather Stations






























Interactive Weather Map
Tropical Storm Tracking
New forecast layout! Learn more

10-Day Weather Forecast

Advertisements
Track Severe Weather on mobile